Mattersburg, Austria
Current Conditions -  °F | °C
As of 10:50 PM on Friday 28 Nov 2014 (Local Time) from LOWW Reporting Station
Haze Haze  
Wind Chill: 26°   Ceiling: 400
Heat Index: 34°   Visibility: 2.2mi
Dew Point: 34°   Wind: 10mph
Humidity: 100%   Direction: 110°ESE
Pressure: 30.09"   Gusts: NA
Location:  47.73°N, 16.39°E
Report Text: LOWW 282050Z 11009KT 3600 BR FEW002 SCT003 BKN004 01/01 Q1019 NOSIG
Loading
Personal Weather Stations






























Interactive Weather Map New forecast layout! Learn more

10-Day Weather Forecast

Advertisements
Track Severe Weather on mobile